sensor_id;sensor_type;location;lat;lon;timestamp;P1;durP1;ratioP1;P2;durP2;ratioP2
14118;SDS011;7138;49.246;9.100;2023-01-08T00:02:09;12.50;;;7.40;;
14118;SDS011;7138;49.246;9.100;2023-01-08T00:04:35;11.85;;;7.75;;
14118;SDS011;7138;49.246;9.100;2023-01-08T00:07:01;10.98;;;7.00;;
14118;SDS011;7138;49.246;9.100;2023-01-08T00:09:27;11.27;;;6.97;;
14118;SDS011;7138;49.246;9.100;2023-01-08T00:11:52;11.38;;;7.10;;
14118;SDS011;7138;49.246;9.100;2023-01-08T00:14:18;10.98;;;7.05;;
14118;SDS011;7138;49.246;9.100;2023-01-08T00:16:44;10.27;;;6.78;;
14118;SDS011;7138;49.246;9.100;2023-01-08T00:19:11;10.02;;;6.75;;
14118;SDS011;7138;49.246;9.100;2023-01-08T00:21:37;11.30;;;7.10;;
14118;SDS011;7138;49.246;9.100;2023-01-08T00:24:04;10.40;;;6.70;;
14118;SDS011;7138;49.246;9.100;2023-01-08T00:26:30;9.70;;;6.55;;
14118;SDS011;7138;49.246;9.100;2023-01-08T00:28:56;9.55;;;6.35;;
14118;SDS011;7138;49.246;9.100;2023-01-08T00:31:22;10.60;;;6.80;;
14118;SDS011;7138;49.246;9.100;2023-01-08T00:33:48;10.18;;;6.80;;
14118;SDS011;7138;49.246;9.100;2023-01-08T00:36:16;10.73;;;6.90;;
14118;SDS011;7138;49.246;9.100;2023-01-08T00:38:44;11.13;;;6.72;;
14118;SDS011;7138;49.246;9.100;2023-01-08T00:41:11;11.10;;;6.70;;
14118;SDS011;7138;49.246;9.100;2023-01-08T00:43:38;11.88;;;7.07;;
14118;SDS011;7138;49.246;9.100;2023-01-08T00:46:04;10.15;;;6.82;;
14118;SDS011;7138;49.246;9.100;2023-01-08T00:48:31;10.35;;;6.57;;
14118;SDS011;7138;49.246;9.100;2023-01-08T00:51:01;10.40;;;6.75;;
14118;SDS011;7138;49.246;9.100;2023-01-08T00:53:28;10.10;;;6.65;;
14118;SDS011;7138;49.246;9.100;2023-01-08T00:55:58;9.07;;;5.80;;
14118;SDS011;7138;49.246;9.100;2023-01-08T00:58:25;10.48;;;6.30;;
14118;SDS011;7138;49.246;9.100;2023-01-08T01:00:51;9.60;;;6.18;;
14118;SDS011;7138;49.246;9.100;2023-01-08T01:03:17;10.40;;;6.93;;
14118;SDS011;7138;49.246;9.100;2023-01-08T01:05:42;10.77;;;6.57;;
14118;SDS011;7138;49.246;9.100;2023-01-08T01:08:08;10.23;;;6.55;;
14118;SDS011;7138;49.246;9.100;2023-01-08T01:10:36;9.10;;;6.30;;
14118;SDS011;7138;49.246;9.100;2023-01-08T01:13:03;9.90;;;6.78;;
14118;SDS011;7138;49.246;9.100;2023-01-08T01:15:28;10.10;;;5.95;;
14118;SDS011;7138;49.246;9.100;2023-01-08T01:17:54;9.50;;;6.10;;
14118;SDS011;7138;49.246;9.100;2023-01-08T01:20:20;10.63;;;6.28;;
14118;SDS011;7138;49.246;9.100;2023-01-08T01:22:47;12.15;;;7.18;;
14118;SDS011;7138;49.246;9.100;2023-01-08T01:25:14;11.45;;;6.78;;
14118;SDS011;7138;49.246;9.100;2023-01-08T01:27:42;11.70;;;6.85;;
14118;SDS011;7138;49.246;9.100;2023-01-08T01:30:08;9.48;;;6.10;;
14118;SDS011;7138;49.246;9.100;2023-01-08T01:32:35;9.18;;;6.22;;
14118;SDS011;7138;49.246;9.100;2023-01-08T01:35:01;10.52;;;6.70;;
14118;SDS011;7138;49.246;9.100;2023-01-08T01:37:27;9.38;;;5.65;;
14118;SDS011;7138;49.246;9.100;2023-01-08T01:39:53;11.68;;;6.20;;
14118;SDS011;7138;49.246;9.100;2023-01-08T01:42:20;9.88;;;5.95;;
14118;SDS011;7138;49.246;9.100;2023-01-08T01:45:10;8.90;;;5.97;;
14118;SDS011;7138;49.246;9.100;2023-01-08T01:47:43;9.80;;;6.35;;
14118;SDS011;7138;49.246;9.100;2023-01-08T01:50:14;9.43;;;6.10;;
14118;SDS011;7138;49.246;9.100;2023-01-08T01:52:44;9.50;;;6.10;;
14118;SDS011;7138;49.246;9.100;2023-01-08T01:55:22;9.23;;;5.82;;
14118;SDS011;7138;49.246;9.100;2023-01-08T01:57:51;9.48;;;5.68;;
14118;SDS011;7138;49.246;9.100;2023-01-08T02:00:26;7.72;;;5.07;;
14118;SDS011;7138;49.246;9.100;2023-01-08T02:02:53;8.35;;;5.20;;
14118;SDS011;7138;49.246;9.100;2023-01-08T02:05:20;10.13;;;5.50;;
14118;SDS011;7138;49.246;9.100;2023-01-08T02:07:53;10.23;;;5.85;;
14118;SDS011;7138;49.246;9.100;2023-01-08T02:10:30;8.00;;;5.32;;
14118;SDS011;7138;49.246;9.100;2023-01-08T02:13:05;9.85;;;5.80;;
14118;SDS011;7138;49.246;9.100;2023-01-08T02:15:44;8.85;;;5.60;;
14118;SDS011;7138;49.246;9.100;2023-01-08T02:18:20;9.27;;;6.00;;
14118;SDS011;7138;49.246;9.100;2023-01-08T02:20:54;8.75;;;5.40;;
14118;SDS011;7138;49.246;9.100;2023-01-08T02:23:29;10.77;;;6.00;;
14118;SDS011;7138;49.246;9.100;2023-01-08T02:26:19;10.18;;;5.43;;
14118;SDS011;7138;49.246;9.100;2023-01-08T02:28:51;9.10;;;5.70;;
14118;SDS011;7138;49.246;9.100;2023-01-08T02:31:22;8.82;;;5.63;;
14118;SDS011;7138;49.246;9.100;2023-01-08T02:36:25;9.23;;;5.60;;
14118;SDS011;7138;49.246;9.100;2023-01-08T02:41:56;9.25;;;5.75;;
14118;SDS011;7138;49.246;9.100;2023-01-08T02:44:34;10.45;;;5.90;;
14118;SDS011;7138;49.246;9.100;2023-01-08T02:47:14;11.75;;;6.03;;
14118;SDS011;7138;49.246;9.100;2023-01-08T02:49:49;10.48;;;5.80;;
14118;SDS011;7138;49.246;9.100;2023-01-08T02:52:26;8.85;;;5.63;;
14118;SDS011;7138;49.246;9.100;2023-01-08T02:54:58;8.70;;;5.35;;
14118;SDS011;7138;49.246;9.100;2023-01-08T02:57:29;8.55;;;5.40;;
14118;SDS011;7138;49.246;9.100;2023-01-08T02:59:58;9.68;;;5.45;;
14118;SDS011;7138;49.246;9.100;2023-01-08T03:02:23;9.60;;;5.57;;
14118;SDS011;7138;49.246;9.100;2023-01-08T03:04:57;9.90;;;5.90;;
14118;SDS011;7138;49.246;9.100;2023-01-08T03:07:31;9.23;;;5.82;;
14118;SDS011;7138;49.246;9.100;2023-01-08T03:09:58;9.32;;;5.68;;
14118;SDS011;7138;49.246;9.100;2023-01-08T03:12:27;9.80;;;5.90;;
14118;SDS011;7138;49.246;9.100;2023-01-08T03:15:08;9.50;;;5.40;;
14118;SDS011;7138;49.246;9.100;2023-01-08T03:17:43;9.25;;;5.30;;
14118;SDS011;7138;49.246;9.100;2023-01-08T03:20:14;11.38;;;5.25;;
14118;SDS011;7138;49.246;9.100;2023-01-08T03:22:45;8.35;;;5.25;;
14118;SDS011;7138;49.246;9.100;2023-01-08T03:25:16;8.57;;;5.63;;
14118;SDS011;7138;49.246;9.100;2023-01-08T03:27:48;7.90;;;5.18;;
14118;SDS011;7138;49.246;9.100;2023-01-08T03:30:19;9.30;;;5.53;;
14118;SDS011;7138;49.246;9.100;2023-01-08T03:32:48;10.68;;;5.32;;
14118;SDS011;7138;49.246;9.100;2023-01-08T03:35:18;8.93;;;5.30;;
14118;SDS011;7138;49.246;9.100;2023-01-08T03:37:48;10.02;;;5.75;;
14118;SDS011;7138;49.246;9.100;2023-01-08T03:40:21;8.43;;;5.25;;
14118;SDS011;7138;49.246;9.100;2023-01-08T03:42:53;9.93;;;5.97;;
14118;SDS011;7138;49.246;9.100;2023-01-08T03:45:19;9.82;;;6.35;;
14118;SDS011;7138;49.246;9.100;2023-01-08T03:47:48;12.65;;;6.30;;
14118;SDS011;7138;49.246;9.100;2023-01-08T03:50:16;9.05;;;5.93;;
14118;SDS011;7138;49.246;9.100;2023-01-08T03:52:47;10.35;;;5.95;;
14118;SDS011;7138;49.246;9.100;2023-01-08T03:55:14;9.13;;;5.25;;
14118;SDS011;7138;49.246;9.100;2023-01-08T03:57:39;7.93;;;5.10;;
14118;SDS011;7138;49.246;9.100;2023-01-08T04:00:07;8.70;;;5.43;;
14118;SDS011;7138;49.246;9.100;2023-01-08T04:02:34;9.63;;;5.15;;
14118;SDS011;7138;49.246;9.100;2023-01-08T04:05:00;7.97;;;5.25;;
14118;SDS011;7138;49.246;9.100;2023-01-08T04:07:26;8.20;;;5.18;;
14118;SDS011;7138;49.246;9.100;2023-01-08T04:09:52;8.45;;;5.10;;
14118;SDS011;7138;49.246;9.100;2023-01-08T04:12:18;8.85;;;5.20;;
14118;SDS011;7138;49.246;9.100;2023-01-08T04:14:44;8.70;;;4.97;;
14118;SDS011;7138;49.246;9.100;2023-01-08T04:17:11;9.80;;;5.20;;
14118;SDS011;7138;49.246;9.100;2023-01-08T04:19:38;10.20;;;5.78;;
14118;SDS011;7138;49.246;9.100;2023-01-08T04:22:04;9.80;;;5.57;;
14118;SDS011;7138;49.246;9.100;2023-01-08T04:24:29;8.57;;;5.45;;
14118;SDS011;7138;49.246;9.100;2023-01-08T04:26:55;10.10;;;5.90;;
14118;SDS011;7138;49.246;9.100;2023-01-08T04:29:21;9.00;;;5.88;;
14118;SDS011;7138;49.246;9.100;2023-01-08T04:31:47;9.80;;;5.72;;
14118;SDS011;7138;49.246;9.100;2023-01-08T04:34:14;9.32;;;5.93;;
14118;SDS011;7138;49.246;9.100;2023-01-08T04:36:40;8.38;;;5.50;;
14118;SDS011;7138;49.246;9.100;2023-01-08T04:39:06;10.70;;;6.57;;
14118;SDS011;7138;49.246;9.100;2023-01-08T04:41:32;10.40;;;6.50;;
14118;SDS011;7138;49.246;9.100;2023-01-08T04:43:58;8.40;;;5.43;;
14118;SDS011;7138;49.246;9.100;2023-01-08T04:46:24;8.27;;;5.80;;
14118;SDS011;7138;49.246;9.100;2023-01-08T04:48:49;8.82;;;5.43;;
14118;SDS011;7138;49.246;9.100;2023-01-08T04:51:16;9.02;;;5.75;;
14118;SDS011;7138;49.246;9.100;2023-01-08T04:53:42;10.88;;;5.63;;
14118;SDS011;7138;49.246;9.100;2023-01-08T04:56:09;8.45;;;5.10;;
14118;SDS011;7138;49.246;9.100;2023-01-08T04:58:36;9.00;;;5.07;;
14118;SDS011;7138;49.246;9.100;2023-01-08T05:01:08;9.55;;;5.30;;
14118;SDS011;7138;49.246;9.100;2023-01-08T05:03:36;8.55;;;5.30;;
14118;SDS011;7138;49.246;9.100;2023-01-08T05:06:02;8.93;;;5.30;;
14118;SDS011;7138;49.246;9.100;2023-01-08T05:08:30;8.95;;;5.70;;
14118;SDS011;7138;49.246;9.100;2023-01-08T05:10:57;9.00;;;5.55;;
14118;SDS011;7138;49.246;9.100;2023-01-08T05:13:23;9.13;;;5.53;;
14118;SDS011;7138;49.246;9.100;2023-01-08T05:15:48;8.98;;;5.68;;
14118;SDS011;7138;49.246;9.100;2023-01-08T05:18:14;8.18;;;5.13;;
14118;SDS011;7138;49.246;9.100;2023-01-08T05:20:40;9.23;;;5.72;;
14118;SDS011;7138;49.246;9.100;2023-01-08T05:23:06;8.32;;;5.32;;
14118;SDS011;7138;49.246;9.100;2023-01-08T05:25:33;10.45;;;6.07;;
14118;SDS011;7138;49.246;9.100;2023-01-08T05:27:59;9.90;;;5.70;;
14118;SDS011;7138;49.246;9.100;2023-01-08T05:30:25;9.85;;;5.60;;
14118;SDS011;7138;49.246;9.100;2023-01-08T05:32:51;9.38;;;5.63;;
14118;SDS011;7138;49.246;9.100;2023-01-08T05:35:17;8.27;;;5.35;;
14118;SDS011;7138;49.246;9.100;2023-01-08T05:37:43;9.43;;;5.82;;
14118;SDS011;7138;49.246;9.100;2023-01-08T05:40:09;9.50;;;6.00;;
14118;SDS011;7138;49.246;9.100;2023-01-08T05:42:37;10.55;;;7.10;;
14118;SDS011;7138;49.246;9.100;2023-01-08T05:45:04;9.38;;;6.53;;
14118;SDS011;7138;49.246;9.100;2023-01-08T05:47:32;10.70;;;6.93;;
14118;SDS011;7138;49.246;9.100;2023-01-08T05:49:59;9.00;;;6.82;;
14118;SDS011;7138;49.246;9.100;2023-01-08T05:52:24;9.75;;;7.05;;
14118;SDS011;7138;49.246;9.100;2023-01-08T05:54:51;12.52;;;7.28;;
14118;SDS011;7138;49.246;9.100;2023-01-08T05:57:17;10.23;;;6.88;;
14118;SDS011;7138;49.246;9.100;2023-01-08T05:59:44;12.25;;;6.82;;
14118;SDS011;7138;49.246;9.100;2023-01-08T06:02:10;9.82;;;6.07;;
14118;SDS011;7138;49.246;9.100;2023-01-08T06:04:36;9.93;;;6.63;;
14118;SDS011;7138;49.246;9.100;2023-01-08T06:07:02;10.13;;;6.32;;
14118;SDS011;7138;49.246;9.100;2023-01-08T06:09:28;10.02;;;6.38;;
14118;SDS011;7138;49.246;9.100;2023-01-08T06:11:53;10.23;;;6.75;;
14118;SDS011;7138;49.246;9.100;2023-01-08T06:14:21;13.20;;;8.70;;
14118;SDS011;7138;49.246;9.100;2023-01-08T06:16:49;13.88;;;8.25;;
14118;SDS011;7138;49.246;9.100;2023-01-08T06:19:15;9.98;;;6.93;;
14118;SDS011;7138;49.246;9.100;2023-01-08T06:21:42;11.15;;;7.45;;
14118;SDS011;7138;49.246;9.100;2023-01-08T06:24:09;11.32;;;7.50;;
14118;SDS011;7138;49.246;9.100;2023-01-08T06:26:34;9.30;;;6.90;;
14118;SDS011;7138;49.246;9.100;2023-01-08T06:29:00;9.25;;;6.63;;
14118;SDS011;7138;49.246;9.100;2023-01-08T06:31:26;12.15;;;7.72;;
14118;SDS011;7138;49.246;9.100;2023-01-08T06:33:53;15.55;;;10.70;;
14118;SDS011;7138;49.246;9.100;2023-01-08T06:36:19;12.90;;;8.18;;
14118;SDS011;7138;49.246;9.100;2023-01-08T06:38:45;15.15;;;9.82;;
14118;SDS011;7138;49.246;9.100;2023-01-08T06:41:11;9.70;;;6.95;;
14118;SDS011;7138;49.246;9.100;2023-01-08T06:43:37;11.30;;;7.07;;
14118;SDS011;7138;49.246;9.100;2023-01-08T06:46:03;9.88;;;6.70;;
14118;SDS011;7138;49.246;9.100;2023-01-08T06:48:30;11.45;;;7.18;;
14118;SDS011;7138;49.246;9.100;2023-01-08T06:50:59;11.23;;;7.18;;
14118;SDS011;7138;49.246;9.100;2023-01-08T06:53:25;12.25;;;7.65;;
14118;SDS011;7138;49.246;9.100;2023-01-08T06:55:51;11.50;;;7.10;;
14118;SDS011;7138;49.246;9.100;2023-01-08T06:58:21;11.25;;;7.13;;
14118;SDS011;7138;49.246;9.100;2023-01-08T07:00:47;11.95;;;7.95;;
14118;SDS011;7138;49.246;9.100;2023-01-08T07:03:13;12.68;;;7.30;;
14118;SDS011;7138;49.246;9.100;2023-01-08T07:05:38;10.40;;;6.85;;
14118;SDS011;7138;49.246;9.100;2023-01-08T07:08:06;11.10;;;7.35;;
14118;SDS011;7138;49.246;9.100;2023-01-08T07:10:35;12.30;;;7.82;;
14118;SDS011;7138;49.246;9.100;2023-01-08T07:13:01;11.23;;;7.25;;
14118;SDS011;7138;49.246;9.100;2023-01-08T07:15:26;12.98;;;7.07;;
14118;SDS011;7138;49.246;9.100;2023-01-08T07:17:52;10.93;;;7.15;;
14118;SDS011;7138;49.246;9.100;2023-01-08T07:20:18;11.65;;;7.38;;
14118;SDS011;7138;49.246;9.100;2023-01-08T07:22:44;11.68;;;7.13;;
14118;SDS011;7138;49.246;9.100;2023-01-08T07:25:11;11.82;;;7.40;;
14118;SDS011;7138;49.246;9.100;2023-01-08T07:27:37;11.32;;;7.43;;
14118;SDS011;7138;49.246;9.100;2023-01-08T07:30:03;11.93;;;7.55;;
14118;SDS011;7138;49.246;9.100;2023-01-08T07:32:31;11.10;;;7.72;;
14118;SDS011;7138;49.246;9.100;2023-01-08T07:34:56;13.13;;;8.77;;
14118;SDS011;7138;49.246;9.100;2023-01-08T07:37:23;14.80;;;9.13;;
14118;SDS011;7138;49.246;9.100;2023-01-08T07:39:49;16.75;;;9.70;;
14118;SDS011;7138;49.246;9.100;2023-01-08T07:42:18;16.02;;;9.63;;
14118;SDS011;7138;49.246;9.100;2023-01-08T07:44:44;22.13;;;14.15;;
14118;SDS011;7138;49.246;9.100;2023-01-08T07:47:10;17.33;;;9.20;;
14118;SDS011;7138;49.246;9.100;2023-01-08T07:49:35;10.88;;;6.55;;
14118;SDS011;7138;49.246;9.100;2023-01-08T07:52:01;9.00;;;5.70;;
14118;SDS011;7138;49.246;9.100;2023-01-08T07:54:27;10.70;;;5.95;;
14118;SDS011;7138;49.246;9.100;2023-01-08T07:56:53;9.02;;;5.90;;
14118;SDS011;7138;49.246;9.100;2023-01-08T07:59:20;9.88;;;5.45;;
14118;SDS011;7138;49.246;9.100;2023-01-08T08:01:46;10.98;;;6.25;;
14118;SDS011;7138;49.246;9.100;2023-01-08T08:04:13;11.25;;;6.68;;
14118;SDS011;7138;49.246;9.100;2023-01-08T08:06:39;12.90;;;7.30;;
14118;SDS011;7138;49.246;9.100;2023-01-08T08:09:05;17.42;;;10.70;;
14118;SDS011;7138;49.246;9.100;2023-01-08T08:11:30;19.20;;;12.15;;
14118;SDS011;7138;49.246;9.100;2023-01-08T08:13:56;16.60;;;10.70;;
14118;SDS011;7138;49.246;9.100;2023-01-08T08:16:23;16.08;;;8.98;;
14118;SDS011;7138;49.246;9.100;2023-01-08T08:18:49;13.25;;;8.70;;
14118;SDS011;7138;49.246;9.100;2023-01-08T08:21:15;11.77;;;7.80;;
14118;SDS011;7138;49.246;9.100;2023-01-08T08:23:41;11.27;;;7.35;;
14118;SDS011;7138;49.246;9.100;2023-01-08T08:26:07;13.13;;;8.75;;
14118;SDS011;7138;49.246;9.100;2023-01-08T08:28:33;12.70;;;8.23;;
14118;SDS011;7138;49.246;9.100;2023-01-08T08:30:58;13.25;;;9.25;;
14118;SDS011;7138;49.246;9.100;2023-01-08T08:33:25;11.48;;;7.13;;
14118;SDS011;7138;49.246;9.100;2023-01-08T08:35:51;9.48;;;5.75;;
14118;SDS011;7138;49.246;9.100;2023-01-08T08:38:17;10.82;;;5.88;;
14118;SDS011;7138;49.246;9.100;2023-01-08T08:40:43;9.98;;;5.63;;
14118;SDS011;7138;49.246;9.100;2023-01-08T08:43:09;11.48;;;6.50;;
14118;SDS011;7138;49.246;9.100;2023-01-08T08:45:35;12.02;;;6.18;;
14118;SDS011;7138;49.246;9.100;2023-01-08T08:48:04;10.77;;;4.65;;
14118;SDS011;7138;49.246;9.100;2023-01-08T08:50:32;22.67;;;11.23;;
14118;SDS011;7138;49.246;9.100;2023-01-08T08:52:59;42.13;;;23.92;;
14118;SDS011;7138;49.246;9.100;2023-01-08T08:55:26;34.15;;;22.83;;
14118;SDS011;7138;49.246;9.100;2023-01-08T08:57:52;16.65;;;12.32;;
14118;SDS011;7138;49.246;9.100;2023-01-08T09:00:18;17.90;;;13.95;;
14118;SDS011;7138;49.246;9.100;2023-01-08T09:02:45;15.80;;;11.95;;
14118;SDS011;7138;49.246;9.100;2023-01-08T09:05:13;8.65;;;5.55;;
14118;SDS011;7138;49.246;9.100;2023-01-08T09:07:41;6.22;;;4.20;;
14118;SDS011;7138;49.246;9.100;2023-01-08T09:10:07;8.45;;;4.22;;
14118;SDS011;7138;49.246;9.100;2023-01-08T09:12:33;6.10;;;3.97;;
14118;SDS011;7138;49.246;9.100;2023-01-08T09:14:59;6.80;;;3.67;;
14118;SDS011;7138;49.246;9.100;2023-01-08T09:17:25;5.97;;;3.70;;
14118;SDS011;7138;49.246;9.100;2023-01-08T09:19:50;5.60;;;3.53;;
14118;SDS011;7138;49.246;9.100;2023-01-08T09:22:16;11.32;;;5.72;;
14118;SDS011;7138;49.246;9.100;2023-01-08T09:24:44;11.35;;;5.28;;
14118;SDS011;7138;49.246;9.100;2023-01-08T09:27:10;9.32;;;6.63;;
14118;SDS011;7138;49.246;9.100;2023-01-08T09:29:35;8.35;;;5.45;;
14118;SDS011;7138;49.246;9.100;2023-01-08T09:32:03;6.53;;;4.30;;
14118;SDS011;7138;49.246;9.100;2023-01-08T09:34:31;7.60;;;4.40;;
14118;SDS011;7138;49.246;9.100;2023-01-08T09:36:56;10.07;;;5.85;;
14118;SDS011;7138;49.246;9.100;2023-01-08T09:39:22;10.00;;;5.45;;
14118;SDS011;7138;49.246;9.100;2023-01-08T09:41:49;10.88;;;5.32;;
14118;SDS011;7138;49.246;9.100;2023-01-08T09:44:17;8.48;;;5.65;;
14118;SDS011;7138;49.246;9.100;2023-01-08T09:46:48;9.77;;;6.25;;
14118;SDS011;7138;49.246;9.100;2023-01-08T09:49:16;9.75;;;5.82;;
14118;SDS011;7138;49.246;9.100;2023-01-08T09:51:49;10.13;;;6.43;;
14118;SDS011;7138;49.246;9.100;2023-01-08T09:54:16;8.95;;;5.90;;
14118;SDS011;7138;49.246;9.100;2023-01-08T09:56:42;13.48;;;7.32;;
14118;SDS011;7138;49.246;9.100;2023-01-08T09:59:11;13.68;;;7.95;;
14118;SDS011;7138;49.246;9.100;2023-01-08T10:01:41;12.15;;;7.97;;
14118;SDS011;7138;49.246;9.100;2023-01-08T10:04:12;13.93;;;7.65;;
14118;SDS011;7138;49.246;9.100;2023-01-08T10:06:41;10.38;;;6.65;;
14118;SDS011;7138;49.246;9.100;2023-01-08T10:09:16;10.07;;;6.28;;
14118;SDS011;7138;49.246;9.100;2023-01-08T10:11:47;16.25;;;7.13;;
14118;SDS011;7138;49.246;9.100;2023-01-08T10:14:20;10.68;;;6.88;;
14118;SDS011;7138;49.246;9.100;2023-01-08T10:16:52;9.90;;;5.72;;
14118;SDS011;7138;49.246;9.100;2023-01-08T10:19:22;11.55;;;5.47;;
14118;SDS011;7138;49.246;9.100;2023-01-08T10:21:48;8.45;;;4.63;;
14118;SDS011;7138;49.246;9.100;2023-01-08T10:24:15;5.85;;;3.70;;
14118;SDS011;7138;49.246;9.100;2023-01-08T10:26:41;7.13;;;3.70;;
14118;SDS011;7138;49.246;9.100;2023-01-08T10:29:07;7.13;;;3.30;;
14118;SDS011;7138;49.246;9.100;2023-01-08T10:31:41;6.20;;;3.10;;
14118;SDS011;7138;49.246;9.100;2023-01-08T10:34:21;6.75;;;3.20;;
14118;SDS011;7138;49.246;9.100;2023-01-08T10:36:52;6.53;;;3.50;;
14118;SDS011;7138;49.246;9.100;2023-01-08T10:39:20;8.30;;;3.40;;
14118;SDS011;7138;49.246;9.100;2023-01-08T10:41:50;5.55;;;2.28;;
14118;SDS011;7138;49.246;9.100;2023-01-08T10:46:51;8.90;;;3.15;;
14118;SDS011;7138;49.246;9.100;2023-01-08T10:49:24;7.63;;;3.10;;
14118;SDS011;7138;49.246;9.100;2023-01-08T10:51:56;6.80;;;2.40;;
14118;SDS011;7138;49.246;9.100;2023-01-08T10:54:25;9.30;;;4.55;;
14118;SDS011;7138;49.246;9.100;2023-01-08T10:56:57;10.15;;;4.35;;
14118;SDS011;7138;49.246;9.100;2023-01-08T10:59:23;5.50;;;2.70;;
14118;SDS011;7138;49.246;9.100;2023-01-08T11:01:51;5.20;;;2.60;;
14118;SDS011;7138;49.246;9.100;2023-01-08T11:04:21;3.30;;;1.65;;
14118;SDS011;7138;49.246;9.100;2023-01-08T11:06:53;3.80;;;2.00;;
14118;SDS011;7138;49.246;9.100;2023-01-08T11:09:25;3.70;;;1.88;;
14118;SDS011;7138;49.246;9.100;2023-01-08T11:11:56;3.67;;;1.92;;
14118;SDS011;7138;49.246;9.100;2023-01-08T11:14:24;3.50;;;1.70;;
14118;SDS011;7138;49.246;9.100;2023-01-08T11:16:55;3.92;;;1.75;;
14118;SDS011;7138;49.246;9.100;2023-01-08T11:19:22;3.83;;;1.98;;
14118;SDS011;7138;49.246;9.100;2023-01-08T11:21:55;5.50;;;2.40;;
14118;SDS011;7138;49.246;9.100;2023-01-08T11:24:24;4.88;;;2.22;;
14118;SDS011;7138;49.246;9.100;2023-01-08T11:26:56;4.13;;;1.83;;
14118;SDS011;7138;49.246;9.100;2023-01-08T11:29:30;4.55;;;2.00;;
14118;SDS011;7138;49.246;9.100;2023-01-08T11:32:14;4.63;;;2.17;;
14118;SDS011;7138;49.246;9.100;2023-01-08T11:34:53;3.30;;;1.75;;
14118;SDS011;7138;49.246;9.100;2023-01-08T11:37:27;3.72;;;1.50;;
14118;SDS011;7138;49.246;9.100;2023-01-08T11:39:59;3.63;;;1.73;;
14118;SDS011;7138;49.246;9.100;2023-01-08T11:42:32;3.67;;;1.50;;
14118;SDS011;7138;49.246;9.100;2023-01-08T11:45:21;3.28;;;1.80;;
14118;SDS011;7138;49.246;9.100;2023-01-08T11:48:04;4.40;;;1.70;;
14118;SDS011;7138;49.246;9.100;2023-01-08T11:51:21;2.90;;;1.30;;
14118;SDS011;7138;49.246;9.100;2023-01-08T11:54:11;4.75;;;2.10;;
14118;SDS011;7138;49.246;9.100;2023-01-08T11:56:58;4.53;;;2.50;;
14118;SDS011;7138;49.246;9.100;2023-01-08T11:59:52;3.30;;;1.63;;
14118;SDS011;7138;49.246;9.100;2023-01-08T12:02:40;3.53;;;1.65;;
14118;SDS011;7138;49.246;9.100;2023-01-08T12:05:27;6.57;;;2.90;;
14118;SDS011;7138;49.246;9.100;2023-01-08T12:07:58;4.63;;;1.83;;
14118;SDS011;7138;49.246;9.100;2023-01-08T12:10:32;7.55;;;3.53;;
14118;SDS011;7138;49.246;9.100;2023-01-08T12:13:18;5.65;;;2.10;;
14118;SDS011;7138;49.246;9.100;2023-01-08T12:16:02;5.28;;;2.05;;
14118;SDS011;7138;49.246;9.100;2023-01-08T12:18:50;12.82;;;6.13;;
14118;SDS011;7138;49.246;9.100;2023-01-08T12:21:41;5.30;;;2.03;;
14118;SDS011;7138;49.246;9.100;2023-01-08T12:24:33;24.90;;;10.10;;
14118;SDS011;7138;49.246;9.100;2023-01-08T12:27:38;4.35;;;2.38;;
14118;SDS011;7138;49.246;9.100;2023-01-08T12:30:23;4.00;;;1.70;;
14118;SDS011;7138;49.246;9.100;2023-01-08T12:33:08;4.82;;;1.65;;
14118;SDS011;7138;49.246;9.100;2023-01-08T12:35:46;4.32;;;1.80;;
14118;SDS011;7138;49.246;9.100;2023-01-08T12:38:20;3.60;;;1.85;;
14118;SDS011;7138;49.246;9.100;2023-01-08T12:40:57;2.97;;;1.40;;
14118;SDS011;7138;49.246;9.100;2023-01-08T12:43:28;3.72;;;1.98;;
14118;SDS011;7138;49.246;9.100;2023-01-08T12:46:04;3.63;;;1.60;;
14118;SDS011;7138;49.246;9.100;2023-01-08T12:48:32;3.72;;;1.70;;
14118;SDS011;7138;49.246;9.100;2023-01-08T12:51:01;3.38;;;1.40;;
14118;SDS011;7138;49.246;9.100;2023-01-08T12:53:41;3.15;;;1.42;;
14118;SDS011;7138;49.246;9.100;2023-01-08T12:56:19;2.45;;;1.05;;
14118;SDS011;7138;49.246;9.100;2023-01-08T12:59:01;3.25;;;1.40;;
14118;SDS011;7138;49.246;9.100;2023-01-08T13:01:40;4.93;;;1.40;;
14118;SDS011;7138;49.246;9.100;2023-01-08T13:04:14;3.88;;;1.40;;
14118;SDS011;7138;49.246;9.100;2023-01-08T13:06:48;3.55;;;1.20;;
14118;SDS011;7138;49.246;9.100;2023-01-08T13:09:20;4.10;;;1.30;;
14118;SDS011;7138;49.246;9.100;2023-01-08T13:11:50;2.75;;;1.15;;
14118;SDS011;7138;49.246;9.100;2023-01-08T13:14:17;2.67;;;1.23;;
14118;SDS011;7138;49.246;9.100;2023-01-08T13:16:45;3.30;;;1.20;;
14118;SDS011;7138;49.246;9.100;2023-01-08T13:19:26;2.47;;;1.10;;
14118;SDS011;7138;49.246;9.100;2023-01-08T13:24:27;2.92;;;1.02;;
14118;SDS011;7138;49.246;9.100;2023-01-08T13:26:56;2.83;;;1.42;;
14118;SDS011;7138;49.246;9.100;2023-01-08T13:32:09;4.32;;;1.60;;
14118;SDS011;7138;49.246;9.100;2023-01-08T13:34:59;4.03;;;1.50;;
14118;SDS011;7138;49.246;9.100;2023-01-08T13:37:27;2.80;;;1.50;;
14118;SDS011;7138;49.246;9.100;2023-01-08T13:39:55;3.50;;;1.75;;
14118;SDS011;7138;49.246;9.100;2023-01-08T13:42:22;4.07;;;1.38;;
14118;SDS011;7138;49.246;9.100;2023-01-08T13:44:56;3.17;;;1.10;;
14118;SDS011;7138;49.246;9.100;2023-01-08T13:47:27;3.28;;;1.50;;
14118;SDS011;7138;49.246;9.100;2023-01-08T13:49:57;3.85;;;1.50;;
14118;SDS011;7138;49.246;9.100;2023-01-08T13:55:15;3.08;;;1.30;;
14118;SDS011;7138;49.246;9.100;2023-01-08T13:57:47;3.22;;;1.27;;
14118;SDS011;7138;49.246;9.100;2023-01-08T14:00:18;3.67;;;1.38;;
14118;SDS011;7138;49.246;9.100;2023-01-08T14:02:48;2.92;;;1.15;;
14118;SDS011;7138;49.246;9.100;2023-01-08T14:05:22;3.03;;;1.25;;
14118;SDS011;7138;49.246;9.100;2023-01-08T14:07:52;4.68;;;1.40;;
14118;SDS011;7138;49.246;9.100;2023-01-08T14:10:20;2.80;;;1.30;;
14118;SDS011;7138;49.246;9.100;2023-01-08T14:15:23;2.60;;;1.10;;
14118;SDS011;7138;49.246;9.100;2023-01-08T14:20:28;3.40;;;1.20;;
14118;SDS011;7138;49.246;9.100;2023-01-08T14:22:58;3.63;;;1.30;;
14118;SDS011;7138;49.246;9.100;2023-01-08T14:25:27;2.70;;;1.30;;
14118;SDS011;7138;49.246;9.100;2023-01-08T14:27:54;2.72;;;1.20;;
14118;SDS011;7138;49.246;9.100;2023-01-08T14:30:24;7.15;;;3.95;;
14118;SDS011;7138;49.246;9.100;2023-01-08T14:32:51;3.45;;;1.70;;
14118;SDS011;7138;49.246;9.100;2023-01-08T14:35:20;3.80;;;2.08;;
14118;SDS011;7138;49.246;9.100;2023-01-08T14:37:53;4.03;;;1.70;;
14118;SDS011;7138;49.246;9.100;2023-01-08T14:40:23;3.17;;;1.30;;
14118;SDS011;7138;49.246;9.100;2023-01-08T14:42:57;2.72;;;1.15;;
14118;SDS011;7138;49.246;9.100;2023-01-08T14:45:31;2.35;;;0.88;;
14118;SDS011;7138;49.246;9.100;2023-01-08T14:47:58;2.25;;;0.88;;
14118;SDS011;7138;49.246;9.100;2023-01-08T14:50:34;2.17;;;0.70;;
14118;SDS011;7138;49.246;9.100;2023-01-08T14:53:04;3.08;;;1.20;;
14118;SDS011;7138;49.246;9.100;2023-01-08T14:55:36;3.15;;;0.80;;
14118;SDS011;7138;49.246;9.100;2023-01-08T14:58:10;2.85;;;0.80;;
14118;SDS011;7138;49.246;9.100;2023-01-08T15:00:40;3.17;;;0.82;;
14118;SDS011;7138;49.246;9.100;2023-01-08T15:03:22;2.40;;;0.73;;
14118;SDS011;7138;49.246;9.100;2023-01-08T15:05:56;2.63;;;1.10;;
14118;SDS011;7138;49.246;9.100;2023-01-08T15:08:24;3.42;;;1.00;;
14118;SDS011;7138;49.246;9.100;2023-01-08T15:10:58;1.88;;;0.70;;
14118;SDS011;7138;49.246;9.100;2023-01-08T15:15:57;1.85;;;0.60;;
14118;SDS011;7138;49.246;9.100;2023-01-08T15:18:29;1.73;;;0.60;;
14118;SDS011;7138;49.246;9.100;2023-01-08T15:20:55;2.55;;;0.70;;
14118;SDS011;7138;49.246;9.100;2023-01-08T15:23:27;2.30;;;0.77;;
14118;SDS011;7138;49.246;9.100;2023-01-08T15:26:07;2.60;;;1.00;;
14118;SDS011;7138;49.246;9.100;2023-01-08T15:28:35;3.22;;;1.02;;
14118;SDS011;7138;49.246;9.100;2023-01-08T15:31:01;2.67;;;1.13;;
14118;SDS011;7138;49.246;9.100;2023-01-08T15:33:27;5.75;;;2.30;;
14118;SDS011;7138;49.246;9.100;2023-01-08T15:35:53;7.65;;;4.00;;